Terminal Aerodrome Forecast
Issued by NWS

Home | Current Version | Previous Version | Text Only | Print | Product List | Glossary On
Versions: 1 2 3 4 5 6 7 8 9 10 11 12 13 14
000
FTUS45 KRIW 262300
TAFRKS
TAF
KRKS 262320Z 2700/2724 VRB10G18KT P6SM -TSRA SCT030 BKN060CB
     FM270130 24008KT P6SM VCSH SCT030 BKN060
     FM270800 22006KT P6SM VCFG FEW005 SCT060
     FM271500 28008KT P6SM FEW060 SCT100
     FM272000 VRB12G18KT P6SM VCSH SCT040 BKN080=

USA.gov is the U.S. government's official web portal to all federal, state and local government web resources and services.